createdAt,value
2022-12-14T00:01:48.950Z,88.20
2022-12-14T00:04:16.895Z,92.10
2022-12-14T00:06:44.096Z,88.90
2022-12-14T00:09:11.373Z,93.37
2022-12-14T00:11:38.644Z,87.20
2022-12-14T00:14:06.666Z,89.13
2022-12-14T00:16:35.755Z,98.17
2022-12-14T00:19:04.762Z,93.50
2022-12-14T00:21:32.101Z,106.67
2022-12-14T00:24:00.776Z,120.80
2022-12-14T00:26:31.432Z,118.43
2022-12-14T00:28:59.878Z,113.43
2022-12-14T00:31:27.288Z,115.17
2022-12-14T00:33:55.719Z,113.23
2022-12-14T00:36:23.416Z,117.87
2022-12-14T00:38:53.421Z,122.60
2022-12-14T00:41:20.866Z,131.33
2022-12-14T00:43:49.330Z,120.80
2022-12-14T00:46:17.271Z,123.10
2022-12-14T00:48:44.538Z,115.53
2022-12-14T00:51:11.881Z,105.43
2022-12-14T00:53:39.151Z,116.13
2022-12-14T00:56:07.934Z,122.67
2022-12-14T00:58:35.293Z,121.67
2022-12-14T01:01:05.705Z,116.50
2022-12-14T01:03:34.085Z,111.47
2022-12-14T01:06:02.080Z,111.37
2022-12-14T01:08:36.313Z,112.03
2022-12-14T01:11:08.198Z,119.33
2022-12-14T01:13:36.119Z,125.50
2022-12-14T01:16:12.614Z,142.47
2022-12-14T01:18:42.342Z,132.93
2022-12-14T01:21:16.906Z,120.13
2022-12-14T01:23:45.468Z,111.00
2022-12-14T01:26:14.593Z,105.97
2022-12-14T01:28:42.346Z,97.73
2022-12-14T01:31:18.997Z,98.40
2022-12-14T01:33:47.187Z,91.33
2022-12-14T01:36:17.960Z,100.80
2022-12-14T01:38:45.772Z,107.03
2022-12-14T01:41:28.678Z,95.03
2022-12-14T01:44:03.101Z,95.37
2022-12-14T01:46:32.313Z,93.77
2022-12-14T01:49:42.968Z,88.00
2022-12-14T01:52:17.299Z,87.40
2022-12-14T01:55:05.895Z,94.93
2022-12-14T01:57:38.914Z,84.93
2022-12-14T02:00:09.592Z,80.33
2022-12-14T02:02:39.222Z,85.87
2022-12-14T02:05:08.131Z,83.13
2022-12-14T02:07:35.917Z,83.43
2022-12-14T02:10:07.396Z,83.80
2022-12-14T02:12:43.246Z,82.13
2022-12-14T02:15:12.864Z,85.97
2022-12-14T02:17:43.796Z,88.13
2022-12-14T02:20:12.463Z,86.10
2022-12-14T02:22:45.559Z,88.97
2022-12-14T02:25:16.417Z,94.27
2022-12-14T02:27:58.563Z,90.27
2022-12-14T02:30:27.872Z,91.40
2022-12-14T02:33:16.652Z,92.63
2022-12-14T02:35:55.848Z,87.33
2022-12-14T02:38:25.890Z,88.23
2022-12-14T02:41:14.826Z,95.70
2022-12-14T02:43:57.378Z,94.93
2022-12-14T02:46:52.348Z,90.23
2022-12-14T02:50:08.142Z,89.00
2022-12-14T02:52:50.360Z,101.67
2022-12-14T02:55:37.361Z,90.77
2022-12-14T02:58:18.364Z,84.37
2022-12-14T03:00:46.104Z,79.80
2022-12-14T03:03:13.844Z,89.47
2022-12-14T03:05:41.307Z,83.23
2022-12-14T03:08:14.433Z,81.10
2022-12-14T03:10:51.322Z,79.90
2022-12-14T03:13:25.208Z,78.33
2022-12-14T03:16:15.423Z,76.00
2022-12-14T03:19:03.612Z,74.43
2022-12-14T03:21:37.216Z,76.67
2022-12-14T03:24:13.254Z,77.30
2022-12-14T03:26:50.470Z,74.60
2022-12-14T03:29:28.407Z,71.37
2022-12-14T03:31:57.824Z,64.00
2022-12-14T03:34:54.318Z,68.50
2022-12-14T03:37:30.686Z,68.60
2022-12-14T03:39:58.519Z,72.23
2022-12-14T03:42:49.470Z,78.93
2022-12-14T03:45:44.084Z,82.43
2022-12-14T03:48:17.348Z,71.13
2022-12-14T03:50:53.905Z,68.53
2022-12-14T03:53:35.002Z,69.63
2022-12-14T03:56:05.438Z,69.97
2022-12-14T03:59:08.293Z,73.07
2022-12-14T04:01:59.492Z,71.13
2022-12-14T04:04:51.490Z,71.23
2022-12-14T04:07:37.728Z,78.37
2022-12-14T04:10:56.813Z,81.13
2022-12-14T04:13:49.129Z,75.00
2022-12-14T04:16:43.040Z,74.77
2022-12-14T04:19:24.097Z,71.93
2022-12-14T04:22:00.081Z,74.00
2022-12-14T04:25:01.821Z,73.33
2022-12-14T04:27:40.134Z,71.57
2022-12-14T04:30:10.150Z,70.03
2022-12-14T04:32:40.017Z,68.37
2022-12-14T04:35:23.548Z,69.83
2022-12-14T04:38:14.928Z,67.43
2022-12-14T04:40:57.104Z,66.87
2022-12-14T04:43:29.300Z,66.50
2022-12-14T04:46:06.898Z,64.83
2022-12-14T04:49:10.070Z,65.47
2022-12-14T04:52:00.572Z,64.33
2022-12-14T04:54:50.239Z,67.00
2022-12-14T04:57:48.295Z,60.67
2022-12-14T05:00:16.271Z,50.53
2022-12-14T05:02:49.202Z,61.03
2022-12-14T05:05:36.673Z,60.20
2022-12-14T05:08:07.247Z,57.37
2022-12-14T05:10:47.169Z,59.83
2022-12-14T05:13:38.754Z,59.40
2022-12-14T05:16:07.466Z,58.80
2022-12-14T05:18:36.432Z,58.03
2022-12-14T05:21:03.828Z,61.40
2022-12-14T05:23:31.120Z,60.47
2022-12-14T05:25:58.406Z,60.27
2022-12-14T05:28:25.709Z,62.17
2022-12-14T05:30:53.063Z,55.83
2022-12-14T05:33:21.288Z,52.13
2022-12-14T05:35:48.579Z,50.33
2022-12-14T05:38:15.943Z,55.80
2022-12-14T05:40:43.153Z,59.10
2022-12-14T05:43:12.951Z,51.33
2022-12-14T05:45:40.276Z,47.43
2022-12-14T05:48:07.570Z,50.13
2022-12-14T05:50:34.985Z,44.60
2022-12-14T05:53:02.195Z,53.23
2022-12-14T05:55:29.416Z,47.87
2022-12-14T05:57:56.797Z,54.43
2022-12-14T06:00:24.077Z,47.87
2022-12-14T06:02:51.726Z,44.27
2022-12-14T06:05:19.059Z,44.73
2022-12-14T06:07:46.251Z,45.47
2022-12-14T06:10:13.506Z,45.37
2022-12-14T06:12:40.809Z,46.73
2022-12-14T06:15:08.814Z,46.63
2022-12-14T06:17:36.324Z,44.13
2022-12-14T06:20:05.262Z,45.83
2022-12-14T06:22:32.637Z,40.10
2022-12-14T06:24:59.956Z,37.80
2022-12-14T06:27:27.177Z,38.07
2022-12-14T06:29:58.428Z,37.57
2022-12-14T06:32:26.082Z,35.07
2022-12-14T06:34:53.551Z,35.87
2022-12-14T06:37:20.776Z,36.50
2022-12-14T06:39:53.979Z,37.63
2022-12-14T06:42:21.684Z,37.43
2022-12-14T06:44:48.931Z,36.70
2022-12-14T06:47:16.212Z,38.20
2022-12-14T06:49:43.494Z,37.03
2022-12-14T06:52:11.131Z,40.93
2022-12-14T06:54:38.523Z,40.17
2022-12-14T06:57:06.308Z,40.73
2022-12-14T06:59:33.621Z,42.87
2022-12-14T07:02:01.058Z,46.60
2022-12-14T07:04:28.503Z,53.30
2022-12-14T07:06:55.755Z,56.80
2022-12-14T07:09:23.040Z,55.73
2022-12-14T07:11:51.751Z,54.43
2022-12-14T07:14:19.049Z,52.60
2022-12-14T07:16:48.581Z,50.03
2022-12-14T07:19:16.870Z,74.50
2022-12-14T07:21:44.198Z,76.93
2022-12-14T07:24:11.397Z,62.80
2022-12-14T07:26:38.768Z,71.03
2022-12-14T07:29:06.863Z,72.60
2022-12-14T07:31:34.403Z,71.90
2022-12-14T07:34:02.321Z,60.53
2022-12-14T07:36:31.009Z,48.03
2022-12-14T07:38:58.738Z,45.53
2022-12-14T07:41:31.402Z,49.00
2022-12-14T07:44:01.185Z,51.80
2022-12-14T07:46:30.370Z,54.93
2022-12-14T07:48:59.368Z,54.17
2022-12-14T07:51:29.707Z,53.77
2022-12-14T07:53:57.536Z,50.70
2022-12-14T07:56:30.647Z,48.83
2022-12-14T07:58:59.494Z,48.33
2022-12-14T08:01:32.357Z,47.43
2022-12-14T08:04:04.049Z,46.57
2022-12-14T08:06:32.205Z,49.50
2022-12-14T08:08:59.574Z,44.20
2022-12-14T08:11:27.028Z,41.77
2022-12-14T08:13:59.357Z,43.20
2022-12-14T08:16:27.212Z,42.40
2022-12-14T08:18:55.818Z,40.87
2022-12-14T08:21:23.983Z,46.07
2022-12-14T08:23:54.011Z,45.57
2022-12-14T08:26:22.066Z,48.67
2022-12-14T08:28:49.382Z,47.83
2022-12-14T08:31:23.299Z,45.73
2022-12-14T08:33:51.558Z,46.03
2022-12-14T08:36:21.873Z,46.60
2022-12-14T08:38:57.230Z,42.47
2022-12-14T08:41:26.245Z,46.87
2022-12-14T08:44:04.485Z,45.13
2022-12-14T08:46:33.813Z,40.80
2022-12-14T08:49:01.751Z,45.40
2022-12-14T08:51:29.830Z,42.77
2022-12-14T08:53:58.455Z,43.23
2022-12-14T08:56:27.450Z,45.37
2022-12-14T08:58:55.666Z,58.47
2022-12-14T09:01:33.403Z,76.63
2022-12-14T09:04:08.081Z,62.13
2022-12-14T09:06:38.554Z,62.17
2022-12-14T09:09:15.312Z,62.57
2022-12-14T09:11:44.191Z,46.30
2022-12-14T09:14:11.699Z,49.40
2022-12-14T09:16:39.460Z,55.67
2022-12-14T09:19:07.007Z,55.13
2022-12-14T09:21:35.074Z,61.67
2022-12-14T09:24:02.332Z,54.17
2022-12-14T09:26:30.112Z,66.07
2022-12-14T09:28:58.417Z,82.67
2022-12-14T09:31:27.682Z,45.37
2022-12-14T09:33:55.579Z,60.40
2022-12-14T09:36:25.130Z,44.10
2022-12-14T09:38:55.563Z,38.93
2022-12-14T09:41:25.641Z,43.83
2022-12-14T09:44:18.147Z,49.67
2022-12-14T09:47:07.371Z,35.47
2022-12-14T09:49:43.149Z,37.97
2022-12-14T09:52:16.297Z,34.97
2022-12-14T09:54:45.092Z,58.03
2022-12-14T09:57:26.505Z,37.70
2022-12-14T09:59:57.181Z,35.03
2022-12-14T10:02:50.769Z,34.80
2022-12-14T10:05:25.532Z,38.00
2022-12-14T10:08:11.675Z,40.00
2022-12-14T10:10:54.206Z,44.87
2022-12-14T10:13:59.216Z,165.67
2022-12-14T10:17:01.708Z,65.07
2022-12-14T10:19:55.060Z,64.70
2022-12-14T10:22:33.256Z,52.10
2022-12-14T10:25:14.868Z,72.43
2022-12-14T10:28:09.735Z,75.27
2022-12-14T10:30:36.616Z,59.50
2022-12-14T10:33:18.526Z,55.20
2022-12-14T10:35:52.935Z,56.73
2022-12-14T10:38:51.900Z,52.13
2022-12-14T10:41:25.938Z,64.67
2022-12-14T10:44:18.867Z,57.77
2022-12-14T10:47:00.148Z,45.73
2022-12-14T10:49:33.391Z,50.90
2022-12-14T10:52:04.022Z,58.17
2022-12-14T10:54:38.829Z,42.57
2022-12-14T10:57:07.183Z,40.33
2022-12-14T10:59:43.706Z,48.60
2022-12-14T11:02:27.971Z,41.27
2022-12-14T11:05:04.037Z,41.87
2022-12-14T11:07:34.508Z,46.87
2022-12-14T11:10:16.892Z,41.67
2022-12-14T11:12:54.296Z,42.57
2022-12-14T11:15:29.552Z,45.13
2022-12-14T11:18:06.895Z,46.80
2022-12-14T11:20:34.914Z,52.37
2022-12-14T11:23:18.352Z,51.27
2022-12-14T11:25:51.203Z,52.87
2022-12-14T11:28:36.416Z,68.63
2022-12-14T11:31:05.765Z,86.10
2022-12-14T11:33:50.011Z,103.27
2022-12-14T11:36:28.980Z,100.13
2022-12-14T11:39:21.320Z,89.83
2022-12-14T11:41:52.412Z,99.23
2022-12-14T11:44:19.629Z,62.90
2022-12-14T11:47:02.406Z,53.80
2022-12-14T11:49:38.487Z,41.60
2022-12-14T11:52:05.799Z,48.13
2022-12-14T11:54:34.439Z,48.30
2022-12-14T11:57:07.814Z,55.70
2022-12-14T11:59:42.648Z,40.37
2022-12-14T12:02:27.321Z,47.70
2022-12-14T12:05:09.020Z,43.67
2022-12-14T12:07:43.702Z,45.57
2022-12-14T12:10:13.703Z,40.20
2022-12-14T12:12:57.074Z,47.57
2022-12-14T12:15:57.103Z,39.97
2022-12-14T12:18:45.962Z,41.47
2022-12-14T12:21:21.878Z,44.07
2022-12-14T12:24:07.760Z,45.07
2022-12-14T12:26:43.449Z,44.27
2022-12-14T12:29:29.495Z,52.53
2022-12-14T12:32:19.156Z,71.20
2022-12-14T12:35:11.296Z,54.83
2022-12-14T12:37:53.222Z,53.77
2022-12-14T12:40:31.339Z,43.93
2022-12-14T12:43:22.840Z,48.23
2022-12-14T12:46:02.199Z,46.70
2022-12-14T12:48:45.589Z,58.83
2022-12-14T12:51:27.405Z,54.23
2022-12-14T12:54:03.435Z,52.33
2022-12-14T12:56:49.665Z,50.60
2022-12-14T12:59:35.863Z,45.67
2022-12-14T13:02:34.976Z,50.47
2022-12-14T13:05:44.063Z,49.80
2022-12-14T13:08:03.835Z,46.03
2022-12-14T13:10:34.800Z,49.90
2022-12-14T13:13:09.833Z,44.63
2022-12-14T13:15:42.458Z,44.20
2022-12-14T13:19:08.653Z,47.90
2022-12-14T13:21:47.946Z,44.43
2022-12-14T13:24:20.477Z,48.90
2022-12-14T13:27:04.797Z,62.10
2022-12-14T13:29:49.598Z,50.43
2022-12-14T13:32:43.228Z,56.77
2022-12-14T13:35:31.309Z,54.33
2022-12-14T13:38:12.103Z,56.47
2022-12-14T13:40:44.482Z,56.60
2022-12-14T13:43:56.270Z,52.37
2022-12-14T13:46:27.179Z,54.67
2022-12-14T13:49:00.574Z,44.87
2022-12-14T13:51:30.055Z,47.10
2022-12-14T13:53:59.901Z,52.57
2022-12-14T13:56:34.145Z,57.53
2022-12-14T13:59:05.950Z,49.07
2022-12-14T14:01:47.971Z,53.70
2022-12-14T14:04:19.245Z,51.53
2022-12-14T14:06:51.109Z,51.30
2022-12-14T14:09:28.638Z,57.27
2022-12-14T14:11:59.565Z,58.20
2022-12-14T14:14:47.545Z,69.13
2022-12-14T14:17:35.418Z,77.00
2022-12-14T14:20:24.998Z,83.63
2022-12-14T14:23:17.045Z,81.90
2022-12-14T14:25:55.136Z,83.47
2022-12-14T14:28:29.222Z,105.63
2022-12-14T14:30:58.511Z,85.43
2022-12-14T14:33:49.301Z,86.50
2022-12-14T14:36:45.706Z,74.37
2022-12-14T14:39:57.683Z,55.93
2022-12-14T14:42:29.873Z,76.90
2022-12-14T14:45:08.270Z,71.93
2022-12-14T14:47:40.589Z,69.03
2022-12-14T14:50:19.484Z,63.77
2022-12-14T14:52:58.951Z,74.73
2022-12-14T14:58:42.579Z,106.83
2022-12-14T15:01:25.646Z,76.87
2022-12-14T15:03:57.595Z,77.60
2022-12-14T15:06:31.818Z,76.80
2022-12-14T15:09:13.702Z,101.10
2022-12-14T15:11:57.147Z,99.23
2022-12-14T15:14:48.492Z,103.93
2022-12-14T15:17:22.514Z,110.10
2022-12-14T15:19:54.918Z,81.10
2022-12-14T15:22:41.817Z,84.67
2022-12-14T15:25:38.339Z,74.80
2022-12-14T15:28:10.394Z,130.37
2022-12-14T15:30:38.030Z,109.43
2022-12-14T15:33:09.488Z,91.60
2022-12-14T15:35:40.541Z,75.20
2022-12-14T15:38:17.302Z,84.93
2022-12-14T15:40:55.751Z,85.70
2022-12-14T15:43:24.917Z,100.33
2022-12-14T15:46:03.192Z,88.47
2022-12-14T15:48:35.294Z,74.73
2022-12-14T15:51:04.185Z,84.13
2022-12-14T15:53:35.964Z,82.67
2022-12-14T15:56:31.462Z,86.97
2022-12-14T15:59:01.386Z,79.30
2022-12-14T16:01:39.118Z,92.93
2022-12-14T16:04:13.728Z,97.33
2022-12-14T16:06:45.281Z,93.53
2022-12-14T16:09:31.388Z,83.57
2022-12-14T16:12:25.237Z,62.90
2022-12-14T16:14:59.636Z,77.53
2022-12-14T16:17:34.074Z,86.80
2022-12-14T16:20:09.214Z,113.53
2022-12-14T16:22:40.040Z,93.30
2022-12-14T16:25:10.395Z,81.67
2022-12-14T16:27:43.911Z,85.57
2022-12-14T16:30:22.192Z,80.60
2022-12-14T16:33:03.736Z,99.27
2022-12-14T16:35:34.480Z,80.80
2022-12-14T16:38:07.905Z,82.67
2022-12-14T16:40:39.245Z,88.10
2022-12-14T16:43:23.551Z,99.93
2022-12-14T16:46:06.135Z,121.50
2022-12-14T16:48:36.229Z,119.57
2022-12-14T16:51:38.307Z,78.00
2022-12-14T16:54:27.028Z,81.50
2022-12-14T16:57:09.859Z,81.40
2022-12-14T16:59:45.724Z,80.83
2022-12-14T17:02:31.100Z,67.90
2022-12-14T17:05:06.229Z,74.70
2022-12-14T17:07:34.482Z,103.53
2022-12-14T17:10:01.855Z,82.53
2022-12-14T17:12:29.146Z,104.23
2022-12-14T17:14:56.728Z,97.23
2022-12-14T17:17:35.192Z,80.13
2022-12-14T17:20:07.945Z,81.73
2022-12-14T17:22:38.365Z,93.47
2022-12-14T17:25:06.221Z,102.70
2022-12-14T17:27:33.907Z,128.03
2022-12-14T17:30:12.019Z,102.17
2022-12-14T17:32:39.689Z,127.17
2022-12-14T17:35:11.644Z,104.67
2022-12-14T17:37:39.958Z,101.87
2022-12-14T17:40:08.331Z,113.70
2022-12-14T17:42:39.029Z,98.43
2022-12-14T17:45:17.599Z,118.93
2022-12-14T17:47:45.756Z,113.87
2022-12-14T17:50:18.528Z,117.67
2022-12-14T17:52:47.536Z,93.10
2022-12-14T17:55:27.643Z,98.33
2022-12-14T17:57:56.810Z,89.07
2022-12-14T18:00:45.767Z,91.83
2022-12-14T18:03:16.324Z,144.33
2022-12-14T18:05:48.913Z,166.60
2022-12-14T18:08:21.404Z,155.07
2022-12-14T18:10:54.399Z,129.73
2022-12-14T18:13:22.049Z,210.53
2022-12-14T18:15:51.515Z,241.00
2022-12-14T18:18:24.445Z,191.17
2022-12-14T18:20:58.267Z,97.13
2022-12-14T18:23:26.397Z,116.23
2022-12-14T18:25:56.974Z,101.27
2022-12-14T18:28:24.614Z,110.30
2022-12-14T18:30:58.038Z,111.53
2022-12-14T18:33:27.801Z,125.63
2022-12-14T18:35:57.188Z,109.80
2022-12-14T18:38:27.259Z,72.33
2022-12-14T18:40:57.280Z,97.27
2022-12-14T18:43:28.805Z,68.43
2022-12-14T18:45:57.978Z,83.23
2022-12-14T18:48:27.748Z,72.67
2022-12-14T18:50:56.167Z,86.33
2022-12-14T18:53:28.640Z,106.33
2022-12-14T18:55:57.066Z,112.37
2022-12-14T18:58:27.117Z,87.70
2022-12-14T19:00:58.090Z,80.47
2022-12-14T19:03:26.675Z,83.93
2022-12-14T19:06:43.162Z,86.27
2022-12-14T19:08:54.530Z,114.23
2022-12-14T19:11:40.371Z,77.27
2022-12-14T19:14:08.640Z,98.50
2022-12-14T19:16:36.148Z,91.27
2022-12-14T19:19:03.830Z,85.47
2022-12-14T19:21:31.757Z,110.27
2022-12-14T19:24:02.139Z,103.23
2022-12-14T19:26:29.712Z,113.43
2022-12-14T19:28:57.651Z,74.53
2022-12-14T19:31:24.966Z,84.63
2022-12-14T19:33:52.359Z,96.83
2022-12-14T19:36:19.813Z,126.77
2022-12-14T19:38:49.136Z,66.27
2022-12-14T19:41:20.637Z,70.83
2022-12-14T19:43:48.920Z,68.70
2022-12-14T19:46:18.046Z,69.23
2022-12-14T19:48:45.940Z,65.70
2022-12-14T19:51:14.082Z,58.23
2022-12-14T19:53:43.152Z,67.50
2022-12-14T19:56:11.650Z,73.77
2022-12-14T19:58:39.105Z,74.13
2022-12-14T20:01:14.310Z,78.63
2022-12-14T20:03:42.095Z,82.90
2022-12-14T20:06:09.605Z,84.23
2022-12-14T20:08:37.753Z,117.47
2022-12-14T20:11:10.161Z,80.73
2022-12-14T20:13:38.300Z,76.63
2022-12-14T20:16:06.374Z,101.97
2022-12-14T20:18:34.043Z,117.13
2022-12-14T20:21:07.228Z,87.67
2022-12-14T20:23:36.451Z,89.20
2022-12-14T20:26:11.168Z,77.00
2022-12-14T20:28:41.661Z,89.97
2022-12-14T20:31:10.886Z,90.00
2022-12-14T20:33:38.956Z,77.37
2022-12-14T20:36:07.144Z,92.63
2022-12-14T20:38:34.643Z,92.80
2022-12-14T20:41:10.418Z,90.57
2022-12-14T20:43:40.003Z,66.33
2022-12-14T20:46:18.475Z,70.03
2022-12-14T20:48:48.023Z,96.20
2022-12-14T20:51:15.346Z,110.47
2022-12-14T20:53:42.868Z,125.00
2022-12-14T20:56:16.715Z,113.20
2022-12-14T20:58:48.573Z,98.97
2022-12-14T21:01:18.152Z,89.37
2022-12-14T21:03:49.935Z,96.00
2022-12-14T21:06:22.322Z,95.67
2022-12-14T21:09:02.567Z,87.20
2022-12-14T21:11:50.149Z,127.23
2022-12-14T21:14:19.885Z,154.00
2022-12-14T21:16:47.190Z,111.77
2022-12-14T21:19:16.031Z,95.37
2022-12-14T21:21:46.860Z,88.57
2022-12-14T21:24:37.386Z,83.43
2022-12-14T21:27:07.000Z,94.70
2022-12-14T21:29:34.266Z,90.83
2022-12-14T21:32:01.830Z,121.97
2022-12-14T21:34:29.418Z,127.90
2022-12-14T21:36:56.689Z,100.73
2022-12-14T21:39:23.994Z,150.00
2022-12-14T21:42:09.625Z,132.13
2022-12-14T21:44:38.022Z,126.20
2022-12-14T21:47:08.326Z,115.70
2022-12-14T21:49:43.562Z,111.23
2022-12-14T21:52:14.192Z,116.73
2022-12-14T21:54:42.055Z,112.10
2022-12-14T21:57:33.464Z,129.70
2022-12-14T22:00:00.860Z,94.30
2022-12-14T22:02:28.823Z,83.00
2022-12-14T22:04:56.531Z,87.07
2022-12-14T22:07:29.145Z,89.77
2022-12-14T22:09:56.675Z,85.77
2022-12-14T22:12:24.353Z,96.07
2022-12-14T22:14:51.621Z,83.23
2022-12-14T22:17:19.254Z,79.27
2022-12-14T22:19:46.747Z,81.73
2022-12-14T22:22:17.476Z,93.53
2022-12-14T22:24:47.877Z,93.53
2022-12-14T22:27:15.182Z,99.47
2022-12-14T22:29:43.147Z,109.63
2022-12-14T22:32:12.367Z,100.47
2022-12-14T22:34:40.015Z,84.77
2022-12-14T22:37:07.667Z,78.20
2022-12-14T22:39:34.937Z,81.93
2022-12-14T22:42:02.275Z,80.77
2022-12-14T22:44:29.747Z,76.77
2022-12-14T22:46:57.093Z,72.63
2022-12-14T22:49:24.504Z,63.47
2022-12-14T22:51:51.910Z,65.10
2022-12-14T22:54:23.451Z,62.70
2022-12-14T22:56:59.152Z,62.30
2022-12-14T22:59:33.310Z,59.50
2022-12-14T23:02:00.753Z,57.70
2022-12-14T23:04:28.204Z,58.77
2022-12-14T23:06:56.134Z,59.27
2022-12-14T23:09:41.873Z,68.67
2022-12-14T23:12:28.053Z,69.57
2022-12-14T23:15:13.832Z,68.10
2022-12-14T23:17:59.851Z,85.07
2022-12-14T23:20:45.486Z,87.67
2022-12-14T23:23:31.378Z,78.73
2022-12-14T23:26:22.135Z,84.73
2022-12-14T23:29:08.100Z,83.70
2022-12-14T23:31:54.049Z,86.53
2022-12-14T23:34:39.706Z,69.63
2022-12-14T23:37:28.813Z,70.93
2022-12-14T23:40:14.664Z,67.17
2022-12-14T23:43:00.333Z,66.57
2022-12-14T23:45:46.487Z,64.83
2022-12-14T23:48:31.986Z,67.03
2022-12-14T23:51:20.445Z,68.07
2022-12-14T23:54:06.239Z,67.47
2022-12-14T23:56:52.184Z,70.33
2022-12-14T23:59:37.696Z,66.70
